sensor_id;sensor_type;location;lat;lon;timestamp;P1;durP1;ratioP1;P2;durP2;ratioP2
66667;SDS011;57205;51.438;-2.006;2022-11-20T00:00:48;10.13;;;3.97;;
66667;SDS011;57205;51.438;-2.006;2022-11-20T00:03:14;6.82;;;3.33;;
66667;SDS011;57205;51.438;-2.006;2022-11-20T00:05:42;7.18;;;3.30;;
66667;SDS011;57205;51.438;-2.006;2022-11-20T00:08:08;12.27;;;4.00;;
66667;SDS011;57205;51.438;-2.006;2022-11-20T00:10:36;7.80;;;2.95;;
66667;SDS011;57205;51.438;-2.006;2022-11-20T00:13:02;9.65;;;3.60;;
66667;SDS011;57205;51.438;-2.006;2022-11-20T00:15:28;11.77;;;4.05;;
66667;SDS011;57205;51.438;-2.006;2022-11-20T00:17:53;7.15;;;3.25;;
66667;SDS011;57205;51.438;-2.006;2022-11-20T00:20:19;7.93;;;3.60;;
66667;SDS011;57205;51.438;-2.006;2022-11-20T00:22:44;7.82;;;4.40;;
66667;SDS011;57205;51.438;-2.006;2022-11-20T00:25:10;10.68;;;3.80;;
66667;SDS011;57205;51.438;-2.006;2022-11-20T00:27:36;12.23;;;4.18;;
66667;SDS011;57205;51.438;-2.006;2022-11-20T00:30:01;7.38;;;3.80;;
66667;SDS011;57205;51.438;-2.006;2022-11-20T00:32:27;8.45;;;4.00;;
66667;SDS011;57205;51.438;-2.006;2022-11-20T00:34:53;11.93;;;3.38;;
66667;SDS011;57205;51.438;-2.006;2022-11-20T00:37:18;8.52;;;3.85;;
66667;SDS011;57205;51.438;-2.006;2022-11-20T00:39:44;9.02;;;4.10;;
66667;SDS011;57205;51.438;-2.006;2022-11-20T00:42:09;10.15;;;4.57;;
66667;SDS011;57205;51.438;-2.006;2022-11-20T00:44:34;9.27;;;4.30;;
66667;SDS011;57205;51.438;-2.006;2022-11-20T00:47:00;10.40;;;4.75;;
66667;SDS011;57205;51.438;-2.006;2022-11-20T00:49:25;8.35;;;4.53;;
66667;SDS011;57205;51.438;-2.006;2022-11-20T00:51:51;9.98;;;4.55;;
66667;SDS011;57205;51.438;-2.006;2022-11-20T00:54:16;11.82;;;4.70;;
66667;SDS011;57205;51.438;-2.006;2022-11-20T00:56:42;12.73;;;5.15;;
66667;SDS011;57205;51.438;-2.006;2022-11-20T00:59:08;8.73;;;4.95;;
66667;SDS011;57205;51.438;-2.006;2022-11-20T01:01:35;9.00;;;4.38;;
66667;SDS011;57205;51.438;-2.006;2022-11-20T01:04:01;8.90;;;4.70;;
66667;SDS011;57205;51.438;-2.006;2022-11-20T01:06:28;9.15;;;4.30;;
66667;SDS011;57205;51.438;-2.006;2022-11-20T01:08:57;12.43;;;5.18;;
66667;SDS011;57205;51.438;-2.006;2022-11-20T01:11:25;11.52;;;4.60;;
66667;SDS011;57205;51.438;-2.006;2022-11-20T01:13:53;9.75;;;4.72;;
66667;SDS011;57205;51.438;-2.006;2022-11-20T01:16:33;8.15;;;4.30;;
66667;SDS011;57205;51.438;-2.006;2022-11-20T01:19:02;11.85;;;4.47;;
66667;SDS011;57205;51.438;-2.006;2022-11-20T01:21:30;7.45;;;4.53;;
66667;SDS011;57205;51.438;-2.006;2022-11-20T01:23:58;9.43;;;4.22;;
66667;SDS011;57205;51.438;-2.006;2022-11-20T01:26:25;9.93;;;4.15;;
66667;SDS011;57205;51.438;-2.006;2022-11-20T01:28:57;8.57;;;4.47;;
66667;SDS011;57205;51.438;-2.006;2022-11-20T01:31:27;8.65;;;4.35;;
66667;SDS011;57205;51.438;-2.006;2022-11-20T01:33:54;7.47;;;4.30;;
66667;SDS011;57205;51.438;-2.006;2022-11-20T01:36:22;10.95;;;4.70;;
66667;SDS011;57205;51.438;-2.006;2022-11-20T01:38:53;8.60;;;4.28;;
66667;SDS011;57205;51.438;-2.006;2022-11-20T01:41:20;9.75;;;4.72;;
66667;SDS011;57205;51.438;-2.006;2022-11-20T01:44:05;10.65;;;3.67;;
66667;SDS011;57205;51.438;-2.006;2022-11-20T01:46:31;8.88;;;4.35;;
66667;SDS011;57205;51.438;-2.006;2022-11-20T01:49:04;10.68;;;4.47;;
66667;SDS011;57205;51.438;-2.006;2022-11-20T01:54:25;11.82;;;4.53;;
66667;SDS011;57205;51.438;-2.006;2022-11-20T01:56:59;7.70;;;4.13;;
66667;SDS011;57205;51.438;-2.006;2022-11-20T01:59:26;9.98;;;4.40;;
66667;SDS011;57205;51.438;-2.006;2022-11-20T02:01:53;9.13;;;4.55;;
66667;SDS011;57205;51.438;-2.006;2022-11-20T02:04:19;9.18;;;4.43;;
66667;SDS011;57205;51.438;-2.006;2022-11-20T02:06:56;9.93;;;4.35;;
66667;SDS011;57205;51.438;-2.006;2022-11-20T02:09:25;12.18;;;4.90;;
66667;SDS011;57205;51.438;-2.006;2022-11-20T02:11:51;6.65;;;4.35;;
66667;SDS011;57205;51.438;-2.006;2022-11-20T02:14:17;11.68;;;5.35;;
66667;SDS011;57205;51.438;-2.006;2022-11-20T02:16:46;9.85;;;4.57;;
66667;SDS011;57205;51.438;-2.006;2022-11-20T02:19:34;10.57;;;4.40;;
66667;SDS011;57205;51.438;-2.006;2022-11-20T02:22:02;9.70;;;4.70;;
66667;SDS011;57205;51.438;-2.006;2022-11-20T02:24:44;11.20;;;5.57;;
66667;SDS011;57205;51.438;-2.006;2022-11-20T02:27:15;6.97;;;4.63;;
66667;SDS011;57205;51.438;-2.006;2022-11-20T02:29:42;9.73;;;5.10;;
66667;SDS011;57205;51.438;-2.006;2022-11-20T02:32:20;11.95;;;5.50;;
66667;SDS011;57205;51.438;-2.006;2022-11-20T02:34:51;10.13;;;4.70;;
66667;SDS011;57205;51.438;-2.006;2022-11-20T02:37:17;11.57;;;5.18;;
66667;SDS011;57205;51.438;-2.006;2022-11-20T02:39:44;8.20;;;4.50;;
66667;SDS011;57205;51.438;-2.006;2022-11-20T02:42:12;7.35;;;4.38;;
66667;SDS011;57205;51.438;-2.006;2022-11-20T02:44:38;5.75;;;3.67;;
66667;SDS011;57205;51.438;-2.006;2022-11-20T02:47:03;6.95;;;3.67;;
66667;SDS011;57205;51.438;-2.006;2022-11-20T02:49:29;6.82;;;3.75;;
66667;SDS011;57205;51.438;-2.006;2022-11-20T02:51:54;6.40;;;4.13;;
66667;SDS011;57205;51.438;-2.006;2022-11-20T02:54:19;7.75;;;4.20;;
66667;SDS011;57205;51.438;-2.006;2022-11-20T02:56:45;7.32;;;4.47;;
66667;SDS011;57205;51.438;-2.006;2022-11-20T02:59:10;10.63;;;4.47;;
66667;SDS011;57205;51.438;-2.006;2022-11-20T03:01:36;7.75;;;4.75;;
66667;SDS011;57205;51.438;-2.006;2022-11-20T03:04:01;7.82;;;4.63;;
66667;SDS011;57205;51.438;-2.006;2022-11-20T03:06:27;10.18;;;4.90;;
66667;SDS011;57205;51.438;-2.006;2022-11-20T03:08:53;8.63;;;4.97;;
66667;SDS011;57205;51.438;-2.006;2022-11-20T03:11:19;8.23;;;4.85;;
66667;SDS011;57205;51.438;-2.006;2022-11-20T03:13:44;8.80;;;5.05;;
66667;SDS011;57205;51.438;-2.006;2022-11-20T03:16:11;6.18;;;4.63;;
66667;SDS011;57205;51.438;-2.006;2022-11-20T03:18:39;7.68;;;4.47;;
66667;SDS011;57205;51.438;-2.006;2022-11-20T03:21:05;7.30;;;4.85;;
66667;SDS011;57205;51.438;-2.006;2022-11-20T03:23:30;7.97;;;4.82;;
66667;SDS011;57205;51.438;-2.006;2022-11-20T03:26:07;7.50;;;5.05;;
66667;SDS011;57205;51.438;-2.006;2022-11-20T03:28:35;8.98;;;4.93;;
66667;SDS011;57205;51.438;-2.006;2022-11-20T03:31:05;6.75;;;4.93;;
66667;SDS011;57205;51.438;-2.006;2022-11-20T03:33:32;7.55;;;4.70;;
66667;SDS011;57205;51.438;-2.006;2022-11-20T03:36:01;8.98;;;5.65;;
66667;SDS011;57205;51.438;-2.006;2022-11-20T03:38:30;6.93;;;4.78;;
66667;SDS011;57205;51.438;-2.006;2022-11-20T03:41:00;9.40;;;5.20;;
66667;SDS011;57205;51.438;-2.006;2022-11-20T03:43:28;8.57;;;5.07;;
66667;SDS011;57205;51.438;-2.006;2022-11-20T03:45:54;8.20;;;5.38;;
66667;SDS011;57205;51.438;-2.006;2022-11-20T03:48:20;9.30;;;5.20;;
66667;SDS011;57205;51.438;-2.006;2022-11-20T03:50:45;7.47;;;5.28;;
66667;SDS011;57205;51.438;-2.006;2022-11-20T03:53:12;8.38;;;5.28;;
66667;SDS011;57205;51.438;-2.006;2022-11-20T03:55:38;9.00;;;4.70;;
66667;SDS011;57205;51.438;-2.006;2022-11-20T03:58:04;5.75;;;3.75;;
66667;SDS011;57205;51.438;-2.006;2022-11-20T04:00:29;4.57;;;2.83;;
66667;SDS011;57205;51.438;-2.006;2022-11-20T04:02:57;5.57;;;3.08;;
66667;SDS011;57205;51.438;-2.006;2022-11-20T04:05:24;5.03;;;2.67;;
66667;SDS011;57205;51.438;-2.006;2022-11-20T04:07:49;4.15;;;2.53;;
66667;SDS011;57205;51.438;-2.006;2022-11-20T04:10:15;4.07;;;2.50;;
66667;SDS011;57205;51.438;-2.006;2022-11-20T04:12:40;4.45;;;2.35;;
66667;SDS011;57205;51.438;-2.006;2022-11-20T04:15:06;4.30;;;2.50;;
66667;SDS011;57205;51.438;-2.006;2022-11-20T04:17:32;5.07;;;2.70;;
66667;SDS011;57205;51.438;-2.006;2022-11-20T04:19:57;5.40;;;3.28;;
66667;SDS011;57205;51.438;-2.006;2022-11-20T04:22:22;5.47;;;3.05;;
66667;SDS011;57205;51.438;-2.006;2022-11-20T04:24:48;4.70;;;3.10;;
66667;SDS011;57205;51.438;-2.006;2022-11-20T04:27:13;5.63;;;3.00;;
66667;SDS011;57205;51.438;-2.006;2022-11-20T04:29:39;5.10;;;3.33;;
66667;SDS011;57205;51.438;-2.006;2022-11-20T04:32:04;5.72;;;3.58;;
66667;SDS011;57205;51.438;-2.006;2022-11-20T04:34:30;4.65;;;3.20;;
66667;SDS011;57205;51.438;-2.006;2022-11-20T04:36:56;4.95;;;3.30;;
66667;SDS011;57205;51.438;-2.006;2022-11-20T04:39:21;5.28;;;3.60;;
66667;SDS011;57205;51.438;-2.006;2022-11-20T04:41:47;6.30;;;3.47;;
66667;SDS011;57205;51.438;-2.006;2022-11-20T04:44:12;5.72;;;3.60;;
66667;SDS011;57205;51.438;-2.006;2022-11-20T04:46:38;5.13;;;3.20;;
66667;SDS011;57205;51.438;-2.006;2022-11-20T04:49:05;6.00;;;3.80;;
66667;SDS011;57205;51.438;-2.006;2022-11-20T04:51:32;5.93;;;3.67;;
66667;SDS011;57205;51.438;-2.006;2022-11-20T04:53:58;6.13;;;4.20;;
66667;SDS011;57205;51.438;-2.006;2022-11-20T04:56:24;6.30;;;3.92;;
66667;SDS011;57205;51.438;-2.006;2022-11-20T04:58:49;6.03;;;3.60;;
66667;SDS011;57205;51.438;-2.006;2022-11-20T05:01:17;6.25;;;3.70;;
66667;SDS011;57205;51.438;-2.006;2022-11-20T05:03:44;7.05;;;4.03;;
66667;SDS011;57205;51.438;-2.006;2022-11-20T05:06:11;5.82;;;4.07;;
66667;SDS011;57205;51.438;-2.006;2022-11-20T05:08:38;6.05;;;3.80;;
66667;SDS011;57205;51.438;-2.006;2022-11-20T05:11:11;6.25;;;4.25;;
66667;SDS011;57205;51.438;-2.006;2022-11-20T05:13:41;6.00;;;3.75;;
66667;SDS011;57205;51.438;-2.006;2022-11-20T05:16:08;6.18;;;3.95;;
66667;SDS011;57205;51.438;-2.006;2022-11-20T05:18:37;5.95;;;3.90;;
66667;SDS011;57205;51.438;-2.006;2022-11-20T05:21:04;5.18;;;3.45;;
66667;SDS011;57205;51.438;-2.006;2022-11-20T05:23:30;6.60;;;4.18;;
66667;SDS011;57205;51.438;-2.006;2022-11-20T05:25:57;6.30;;;4.15;;
66667;SDS011;57205;51.438;-2.006;2022-11-20T05:28:23;6.90;;;4.22;;
66667;SDS011;57205;51.438;-2.006;2022-11-20T05:30:49;6.63;;;4.10;;
66667;SDS011;57205;51.438;-2.006;2022-11-20T05:33:15;9.05;;;4.20;;
66667;SDS011;57205;51.438;-2.006;2022-11-20T05:35:41;7.07;;;4.43;;
66667;SDS011;57205;51.438;-2.006;2022-11-20T05:38:07;6.75;;;4.25;;
66667;SDS011;57205;51.438;-2.006;2022-11-20T05:40:32;8.02;;;4.07;;
66667;SDS011;57205;51.438;-2.006;2022-11-20T05:42:58;6.50;;;3.97;;
66667;SDS011;57205;51.438;-2.006;2022-11-20T05:45:24;6.82;;;4.28;;
66667;SDS011;57205;51.438;-2.006;2022-11-20T05:47:49;5.88;;;3.95;;
66667;SDS011;57205;51.438;-2.006;2022-11-20T05:50:15;7.47;;;3.97;;
66667;SDS011;57205;51.438;-2.006;2022-11-20T05:52:40;7.15;;;4.43;;
66667;SDS011;57205;51.438;-2.006;2022-11-20T05:55:06;6.40;;;4.20;;
66667;SDS011;57205;51.438;-2.006;2022-11-20T05:57:32;7.03;;;4.30;;
66667;SDS011;57205;51.438;-2.006;2022-11-20T05:59:57;7.97;;;5.07;;
66667;SDS011;57205;51.438;-2.006;2022-11-20T06:02:23;7.32;;;4.63;;
66667;SDS011;57205;51.438;-2.006;2022-11-20T06:04:48;7.15;;;4.18;;
66667;SDS011;57205;51.438;-2.006;2022-11-20T06:07:14;7.00;;;3.85;;
66667;SDS011;57205;51.438;-2.006;2022-11-20T06:09:39;10.55;;;4.95;;
66667;SDS011;57205;51.438;-2.006;2022-11-20T06:12:05;9.75;;;4.93;;
66667;SDS011;57205;51.438;-2.006;2022-11-20T06:14:31;8.25;;;4.63;;
66667;SDS011;57205;51.438;-2.006;2022-11-20T06:16:57;7.18;;;4.45;;
66667;SDS011;57205;51.438;-2.006;2022-11-20T06:19:22;7.82;;;4.47;;
66667;SDS011;57205;51.438;-2.006;2022-11-20T06:21:48;9.35;;;4.35;;
66667;SDS011;57205;51.438;-2.006;2022-11-20T06:24:14;9.75;;;4.80;;
66667;SDS011;57205;51.438;-2.006;2022-11-20T06:26:40;10.90;;;5.20;;
66667;SDS011;57205;51.438;-2.006;2022-11-20T06:29:05;8.77;;;4.38;;
66667;SDS011;57205;51.438;-2.006;2022-11-20T06:31:31;7.88;;;3.72;;
66667;SDS011;57205;51.438;-2.006;2022-11-20T06:33:59;6.43;;;3.60;;
66667;SDS011;57205;51.438;-2.006;2022-11-20T06:36:26;7.32;;;3.83;;
66667;SDS011;57205;51.438;-2.006;2022-11-20T06:38:52;8.90;;;3.63;;
66667;SDS011;57205;51.438;-2.006;2022-11-20T06:41:18;9.88;;;4.53;;
66667;SDS011;57205;51.438;-2.006;2022-11-20T06:43:45;9.20;;;3.35;;
66667;SDS011;57205;51.438;-2.006;2022-11-20T06:46:12;8.65;;;3.95;;
66667;SDS011;57205;51.438;-2.006;2022-11-20T06:48:38;7.05;;;3.22;;
66667;SDS011;57205;51.438;-2.006;2022-11-20T06:51:05;8.93;;;3.20;;
66667;SDS011;57205;51.438;-2.006;2022-11-20T06:53:31;10.05;;;3.40;;
66667;SDS011;57205;51.438;-2.006;2022-11-20T06:55:57;8.63;;;2.97;;
66667;SDS011;57205;51.438;-2.006;2022-11-20T06:58:23;6.18;;;3.05;;
66667;SDS011;57205;51.438;-2.006;2022-11-20T07:00:51;7.38;;;3.53;;
66667;SDS011;57205;51.438;-2.006;2022-11-20T07:03:16;10.80;;;3.13;;
66667;SDS011;57205;51.438;-2.006;2022-11-20T07:05:42;10.05;;;2.90;;
66667;SDS011;57205;51.438;-2.006;2022-11-20T07:08:07;9.55;;;2.85;;
66667;SDS011;57205;51.438;-2.006;2022-11-20T07:10:33;11.68;;;3.00;;
66667;SDS011;57205;51.438;-2.006;2022-11-20T07:12:58;8.30;;;2.65;;
66667;SDS011;57205;51.438;-2.006;2022-11-20T07:15:24;7.15;;;2.70;;
66667;SDS011;57205;51.438;-2.006;2022-11-20T07:17:50;7.45;;;2.83;;
66667;SDS011;57205;51.438;-2.006;2022-11-20T07:20:16;11.52;;;2.97;;
66667;SDS011;57205;51.438;-2.006;2022-11-20T07:22:42;9.57;;;2.65;;
66667;SDS011;57205;51.438;-2.006;2022-11-20T07:25:08;13.75;;;2.63;;
66667;SDS011;57205;51.438;-2.006;2022-11-20T07:27:34;7.45;;;2.90;;
66667;SDS011;57205;51.438;-2.006;2022-11-20T07:30:00;12.55;;;4.18;;
66667;SDS011;57205;51.438;-2.006;2022-11-20T07:32:26;10.82;;;3.35;;
66667;SDS011;57205;51.438;-2.006;2022-11-20T07:34:51;14.38;;;2.95;;
66667;SDS011;57205;51.438;-2.006;2022-11-20T07:37:17;10.02;;;2.70;;
66667;SDS011;57205;51.438;-2.006;2022-11-20T07:39:42;8.02;;;2.53;;
66667;SDS011;57205;51.438;-2.006;2022-11-20T07:42:08;5.95;;;2.75;;
66667;SDS011;57205;51.438;-2.006;2022-11-20T07:44:34;7.38;;;2.72;;
66667;SDS011;57205;51.438;-2.006;2022-11-20T07:47:00;9.18;;;2.58;;
66667;SDS011;57205;51.438;-2.006;2022-11-20T07:49:26;6.80;;;2.35;;
66667;SDS011;57205;51.438;-2.006;2022-11-20T07:51:51;12.35;;;2.85;;
66667;SDS011;57205;51.438;-2.006;2022-11-20T07:54:20;11.52;;;2.80;;
66667;SDS011;57205;51.438;-2.006;2022-11-20T07:56:46;10.48;;;2.53;;
66667;SDS011;57205;51.438;-2.006;2022-11-20T07:59:12;12.18;;;2.85;;
66667;SDS011;57205;51.438;-2.006;2022-11-20T08:01:38;10.63;;;2.83;;
66667;SDS011;57205;51.438;-2.006;2022-11-20T08:04:04;9.07;;;2.75;;
66667;SDS011;57205;51.438;-2.006;2022-11-20T08:06:30;11.52;;;2.63;;
66667;SDS011;57205;51.438;-2.006;2022-11-20T08:08:56;12.50;;;2.67;;
66667;SDS011;57205;51.438;-2.006;2022-11-20T08:11:21;9.75;;;2.42;;
66667;SDS011;57205;51.438;-2.006;2022-11-20T08:14:05;8.95;;;2.50;;
66667;SDS011;57205;51.438;-2.006;2022-11-20T08:16:37;11.73;;;2.17;;
66667;SDS011;57205;51.438;-2.006;2022-11-20T08:19:06;8.73;;;2.33;;
66667;SDS011;57205;51.438;-2.006;2022-11-20T08:21:32;10.77;;;2.65;;
66667;SDS011;57205;51.438;-2.006;2022-11-20T08:23:58;11.85;;;2.50;;
66667;SDS011;57205;51.438;-2.006;2022-11-20T08:26:24;12.50;;;3.55;;
66667;SDS011;57205;51.438;-2.006;2022-11-20T08:28:53;9.90;;;2.50;;
66667;SDS011;57205;51.438;-2.006;2022-11-20T08:31:19;13.15;;;3.13;;
66667;SDS011;57205;51.438;-2.006;2022-11-20T08:33:45;11.27;;;2.67;;
66667;SDS011;57205;51.438;-2.006;2022-11-20T08:36:11;10.10;;;2.58;;
66667;SDS011;57205;51.438;-2.006;2022-11-20T08:38:37;14.25;;;2.60;;
66667;SDS011;57205;51.438;-2.006;2022-11-20T08:41:03;9.25;;;2.70;;
66667;SDS011;57205;51.438;-2.006;2022-11-20T08:43:48;11.48;;;2.88;;
66667;SDS011;57205;51.438;-2.006;2022-11-20T08:46:13;14.43;;;2.80;;
66667;SDS011;57205;51.438;-2.006;2022-11-20T08:48:39;11.48;;;2.95;;
66667;SDS011;57205;51.438;-2.006;2022-11-20T08:51:04;12.88;;;2.42;;
66667;SDS011;57205;51.438;-2.006;2022-11-20T08:53:30;14.10;;;3.03;;
66667;SDS011;57205;51.438;-2.006;2022-11-20T08:55:58;26.10;;;4.97;;
66667;SDS011;57205;51.438;-2.006;2022-11-20T08:58:25;16.63;;;3.80;;
66667;SDS011;57205;51.438;-2.006;2022-11-20T09:00:51;11.48;;;3.10;;
66667;SDS011;57205;51.438;-2.006;2022-11-20T09:03:16;9.70;;;3.15;;
66667;SDS011;57205;51.438;-2.006;2022-11-20T09:05:42;12.50;;;3.10;;
66667;SDS011;57205;51.438;-2.006;2022-11-20T09:08:08;11.63;;;2.50;;
66667;SDS011;57205;51.438;-2.006;2022-11-20T09:10:33;13.68;;;2.90;;
66667;SDS011;57205;51.438;-2.006;2022-11-20T09:13:00;26.63;;;11.38;;
66667;SDS011;57205;51.438;-2.006;2022-11-20T09:15:26;24.75;;;8.27;;
66667;SDS011;57205;51.438;-2.006;2022-11-20T09:17:55;16.50;;;3.00;;
66667;SDS011;57205;51.438;-2.006;2022-11-20T09:20:26;15.43;;;4.68;;
66667;SDS011;57205;51.438;-2.006;2022-11-20T09:22:53;15.68;;;5.63;;
66667;SDS011;57205;51.438;-2.006;2022-11-20T09:25:19;14.23;;;3.88;;
66667;SDS011;57205;51.438;-2.006;2022-11-20T09:27:44;10.73;;;2.90;;
66667;SDS011;57205;51.438;-2.006;2022-11-20T09:30:11;8.68;;;2.67;;
66667;SDS011;57205;51.438;-2.006;2022-11-20T09:32:41;11.52;;;2.55;;
66667;SDS011;57205;51.438;-2.006;2022-11-20T09:35:07;9.52;;;2.10;;
66667;SDS011;57205;51.438;-2.006;2022-11-20T09:37:33;11.27;;;3.22;;
66667;SDS011;57205;51.438;-2.006;2022-11-20T09:39:59;9.50;;;2.30;;
66667;SDS011;57205;51.438;-2.006;2022-11-20T09:42:41;12.13;;;2.85;;
66667;SDS011;57205;51.438;-2.006;2022-11-20T09:45:18;12.43;;;2.80;;
66667;SDS011;57205;51.438;-2.006;2022-11-20T09:48:07;11.23;;;2.80;;
66667;SDS011;57205;51.438;-2.006;2022-11-20T09:51:11;10.85;;;2.90;;
66667;SDS011;57205;51.438;-2.006;2022-11-20T09:56:24;9.73;;;2.42;;
66667;SDS011;57205;51.438;-2.006;2022-11-20T09:58:51;16.17;;;3.33;;
66667;SDS011;57205;51.438;-2.006;2022-11-20T10:01:20;13.25;;;2.70;;
66667;SDS011;57205;51.438;-2.006;2022-11-20T10:03:53;13.32;;;2.85;;
66667;SDS011;57205;51.438;-2.006;2022-11-20T10:07:08;12.75;;;3.08;;
66667;SDS011;57205;51.438;-2.006;2022-11-20T10:09:43;10.55;;;3.83;;
66667;SDS011;57205;51.438;-2.006;2022-11-20T10:12:27;12.25;;;2.53;;
66667;SDS011;57205;51.438;-2.006;2022-11-20T10:20:43;14.80;;;2.80;;
66667;SDS011;57205;51.438;-2.006;2022-11-20T10:31:31;15.52;;;3.35;;
66667;SDS011;57205;51.438;-2.006;2022-11-20T10:34:01;9.63;;;3.10;;
66667;SDS011;57205;51.438;-2.006;2022-11-20T10:36:44;14.63;;;3.95;;
66667;SDS011;57205;51.438;-2.006;2022-11-20T10:39:17;12.70;;;3.03;;
66667;SDS011;57205;51.438;-2.006;2022-11-20T10:44:17;16.67;;;3.97;;
66667;SDS011;57205;51.438;-2.006;2022-11-20T10:47:05;12.90;;;2.97;;
66667;SDS011;57205;51.438;-2.006;2022-11-20T10:49:35;10.40;;;2.70;;
66667;SDS011;57205;51.438;-2.006;2022-11-20T10:57:31;15.23;;;2.78;;
66667;SDS011;57205;51.438;-2.006;2022-11-20T11:00:10;15.52;;;3.72;;
66667;SDS011;57205;51.438;-2.006;2022-11-20T11:02:55;11.90;;;2.55;;
66667;SDS011;57205;51.438;-2.006;2022-11-20T11:05:35;14.35;;;2.70;;
66667;SDS011;57205;51.438;-2.006;2022-11-20T11:08:02;16.42;;;3.38;;
66667;SDS011;57205;51.438;-2.006;2022-11-20T11:13:27;9.93;;;2.55;;
66667;SDS011;57205;51.438;-2.006;2022-11-20T11:15:56;11.70;;;3.13;;
66667;SDS011;57205;51.438;-2.006;2022-11-20T11:18:26;14.13;;;2.72;;
66667;SDS011;57205;51.438;-2.006;2022-11-20T11:20:57;10.13;;;3.10;;
66667;SDS011;57205;51.438;-2.006;2022-11-20T11:23:30;15.02;;;2.47;;
66667;SDS011;57205;51.438;-2.006;2022-11-20T11:26:01;12.98;;;2.58;;
66667;SDS011;57205;51.438;-2.006;2022-11-20T11:28:28;16.90;;;3.53;;
66667;SDS011;57205;51.438;-2.006;2022-11-20T11:30:54;12.45;;;2.90;;
66667;SDS011;57205;51.438;-2.006;2022-11-20T11:33:27;15.98;;;3.83;;
66667;SDS011;57205;51.438;-2.006;2022-11-20T11:35:58;12.40;;;3.15;;
66667;SDS011;57205;51.438;-2.006;2022-11-20T11:38:36;11.38;;;2.75;;
66667;SDS011;57205;51.438;-2.006;2022-11-20T11:41:04;9.65;;;2.30;;
66667;SDS011;57205;51.438;-2.006;2022-11-20T11:43:34;13.10;;;3.03;;
66667;SDS011;57205;51.438;-2.006;2022-11-20T11:48:59;10.73;;;2.70;;
66667;SDS011;57205;51.438;-2.006;2022-11-20T11:51:29;11.75;;;2.30;;
66667;SDS011;57205;51.438;-2.006;2022-11-20T11:54:01;16.58;;;2.60;;
66667;SDS011;57205;51.438;-2.006;2022-11-20T11:56:36;11.15;;;3.15;;
66667;SDS011;57205;51.438;-2.006;2022-11-20T11:59:03;11.43;;;2.10;;
66667;SDS011;57205;51.438;-2.006;2022-11-20T12:01:39;12.88;;;2.63;;
66667;SDS011;57205;51.438;-2.006;2022-11-20T12:07:13;10.98;;;2.88;;
66667;SDS011;57205;51.438;-2.006;2022-11-20T12:09:46;12.43;;;3.33;;
66667;SDS011;57205;51.438;-2.006;2022-11-20T12:12:18;8.38;;;2.60;;
66667;SDS011;57205;51.438;-2.006;2022-11-20T12:14:49;12.18;;;2.47;;
66667;SDS011;57205;51.438;-2.006;2022-11-20T12:17:19;13.27;;;3.15;;
66667;SDS011;57205;51.438;-2.006;2022-11-20T12:19:45;9.35;;;2.10;;
66667;SDS011;57205;51.438;-2.006;2022-11-20T12:25:24;12.57;;;2.95;;
66667;SDS011;57205;51.438;-2.006;2022-11-20T12:30:52;14.00;;;2.60;;
66667;SDS011;57205;51.438;-2.006;2022-11-20T12:33:57;15.23;;;2.88;;
66667;SDS011;57205;51.438;-2.006;2022-11-20T12:36:39;6.60;;;2.28;;
66667;SDS011;57205;51.438;-2.006;2022-11-20T12:41:56;13.25;;;2.58;;
66667;SDS011;57205;51.438;-2.006;2022-11-20T12:58:09;11.13;;;2.50;;
66667;SDS011;57205;51.438;-2.006;2022-11-20T13:00:43;12.00;;;2.95;;
66667;SDS011;57205;51.438;-2.006;2022-11-20T13:03:32;13.73;;;2.92;;
66667;SDS011;57205;51.438;-2.006;2022-11-20T13:06:12;11.00;;;2.80;;
66667;SDS011;57205;51.438;-2.006;2022-11-20T13:08:42;9.20;;;1.98;;
66667;SDS011;57205;51.438;-2.006;2022-11-20T13:17:34;12.43;;;2.13;;
66667;SDS011;57205;51.438;-2.006;2022-11-20T13:19:51;6.05;;;1.88;;
66667;SDS011;57205;51.438;-2.006;2022-11-20T13:22:25;5.88;;;1.58;;
66667;SDS011;57205;51.438;-2.006;2022-11-20T13:24:52;5.95;;;1.40;;
66667;SDS011;57205;51.438;-2.006;2022-11-20T13:27:20;5.47;;;1.25;;
66667;SDS011;57205;51.438;-2.006;2022-11-20T13:33:00;4.63;;;1.35;;
66667;SDS011;57205;51.438;-2.006;2022-11-20T13:35:35;6.90;;;1.70;;
66667;SDS011;57205;51.438;-2.006;2022-11-20T13:38:09;8.13;;;1.60;;
66667;SDS011;57205;51.438;-2.006;2022-11-20T13:40:38;6.90;;;1.50;;
66667;SDS011;57205;51.438;-2.006;2022-11-20T13:43:28;5.93;;;1.42;;
66667;SDS011;57205;51.438;-2.006;2022-11-20T13:46:03;6.53;;;1.52;;
66667;SDS011;57205;51.438;-2.006;2022-11-20T13:48:34;3.10;;;1.15;;
66667;SDS011;57205;51.438;-2.006;2022-11-20T14:02:10;6.38;;;1.85;;
66667;SDS011;57205;51.438;-2.006;2022-11-20T14:04:45;8.05;;;1.80;;
66667;SDS011;57205;51.438;-2.006;2022-11-20T14:07:13;7.10;;;1.35;;
66667;SDS011;57205;51.438;-2.006;2022-11-20T14:09:48;7.50;;;2.38;;
66667;SDS011;57205;51.438;-2.006;2022-11-20T14:12:19;10.25;;;1.77;;
66667;SDS011;57205;51.438;-2.006;2022-11-20T14:14:50;7.30;;;1.38;;
66667;SDS011;57205;51.438;-2.006;2022-11-20T14:19:42;8.45;;;2.10;;
66667;SDS011;57205;51.438;-2.006;2022-11-20T14:24:48;4.95;;;1.63;;
66667;SDS011;57205;51.438;-2.006;2022-11-20T14:27:25;3.30;;;1.17;;
66667;SDS011;57205;51.438;-2.006;2022-11-20T14:29:51;6.90;;;1.40;;
66667;SDS011;57205;51.438;-2.006;2022-11-20T14:32:17;8.93;;;1.52;;
66667;SDS011;57205;51.438;-2.006;2022-11-20T14:34:45;8.88;;;2.08;;
66667;SDS011;57205;51.438;-2.006;2022-11-20T14:37:17;3.10;;;1.17;;
66667;SDS011;57205;51.438;-2.006;2022-11-20T14:39:49;7.78;;;2.10;;
66667;SDS011;57205;51.438;-2.006;2022-11-20T14:42:25;8.10;;;1.60;;
66667;SDS011;57205;51.438;-2.006;2022-11-20T14:44:55;8.13;;;1.45;;
66667;SDS011;57205;51.438;-2.006;2022-11-20T14:47:26;4.32;;;1.60;;
66667;SDS011;57205;51.438;-2.006;2022-11-20T14:49:54;5.40;;;1.10;;
66667;SDS011;57205;51.438;-2.006;2022-11-20T14:52:24;2.58;;;0.80;;
66667;SDS011;57205;51.438;-2.006;2022-11-20T14:54:52;3.38;;;1.13;;
66667;SDS011;57205;51.438;-2.006;2022-11-20T14:57:37;2.03;;;0.82;;
66667;SDS011;57205;51.438;-2.006;2022-11-20T15:02:44;2.50;;;1.02;;
66667;SDS011;57205;51.438;-2.006;2022-11-20T15:05:12;3.95;;;1.17;;
66667;SDS011;57205;51.438;-2.006;2022-11-20T15:07:39;4.80;;;1.90;;
66667;SDS011;57205;51.438;-2.006;2022-11-20T15:12:49;6.35;;;1.02;;
66667;SDS011;57205;51.438;-2.006;2022-11-20T15:15:21;3.88;;;0.88;;
66667;SDS011;57205;51.438;-2.006;2022-11-20T15:17:51;2.40;;;1.00;;
66667;SDS011;57205;51.438;-2.006;2022-11-20T15:20:17;4.07;;;1.42;;
66667;SDS011;57205;51.438;-2.006;2022-11-20T15:22:43;3.08;;;0.90;;
66667;SDS011;57205;51.438;-2.006;2022-11-20T15:25:15;4.15;;;1.10;;
66667;SDS011;57205;51.438;-2.006;2022-11-20T15:30:12;3.47;;;1.30;;
66667;SDS011;57205;51.438;-2.006;2022-11-20T15:32:39;3.90;;;1.27;;
66667;SDS011;57205;51.438;-2.006;2022-11-20T15:35:05;5.05;;;1.90;;
66667;SDS011;57205;51.438;-2.006;2022-11-20T15:37:31;3.50;;;1.15;;
66667;SDS011;57205;51.438;-2.006;2022-11-20T15:39:56;2.15;;;1.08;;
66667;SDS011;57205;51.438;-2.006;2022-11-20T15:42:22;6.07;;;2.13;;
66667;SDS011;57205;51.438;-2.006;2022-11-20T15:44:48;7.30;;;1.50;;
66667;SDS011;57205;51.438;-2.006;2022-11-20T15:47:14;10.65;;;3.15;;
66667;SDS011;57205;51.438;-2.006;2022-11-20T15:49:39;7.40;;;2.08;;
66667;SDS011;57205;51.438;-2.006;2022-11-20T15:52:05;10.60;;;2.97;;
66667;SDS011;57205;51.438;-2.006;2022-11-20T15:54:30;8.02;;;3.13;;
66667;SDS011;57205;51.438;-2.006;2022-11-20T15:56:56;5.05;;;1.75;;
66667;SDS011;57205;51.438;-2.006;2022-11-20T15:59:21;4.18;;;1.30;;
66667;SDS011;57205;51.438;-2.006;2022-11-20T16:01:47;4.88;;;1.73;;
66667;SDS011;57205;51.438;-2.006;2022-11-20T16:04:13;5.93;;;1.52;;
66667;SDS011;57205;51.438;-2.006;2022-11-20T16:06:40;9.60;;;1.85;;
66667;SDS011;57205;51.438;-2.006;2022-11-20T16:09:06;7.45;;;2.80;;
66667;SDS011;57205;51.438;-2.006;2022-11-20T16:11:32;11.40;;;3.97;;